Olathe, KS

3:07 PM CDT en Agosto 29, 2014 (GMT -0500)
S. Northgate | Change Station
CLOSE
Current Station
Estación meteorológica personal
Location: Olathe, KS
Altura: 970 ft
Estaciones meteorológicas cercanas

Alt 970 ft 38.89 °N, 94.82 °W | Updated 7 seconds ago

Scattered Clouds
Nubes dispersas
81.1 ° F
Sensación térmica 84 ° F
N
2.0
Viento Variable Viento desde SSO
Gusts 11.0 mph

Hoy
Alta -- | Baja -- ° F
--% Posibilidad de precipitaciones
Ayer
Alta -- | Baja -- ° F
Precip. -- pul
6:45 AM 7:54 PM
Creciente, 16% visible
Presión 29.84 pul
Visibilidad 10.0 Millas
Nubes Nubes dispersas 1500 ft
Índice de calor 84 ° F
Punto de rocío 70 ° F
Humedad 68%
Precipitaciones 0.11 pul
Espesor de la nieve No disponible.
UV 4.6 de una escala de 12
Polen 7.20 de una escala de 12
Calidad del aire No disponible.
Flu Activity No disponible.
SPECI KOJC 291955Z 21010KT 10SM SCT015 26/19 A2984 RMK AO2 T02610194

More Conditions Fewer Conditions

Presión 29.84 pul
Visibilidad 10.0 Millas
Nubes Nubes dispersas 1500 ft
Índice de calor 84 ° F
Punto de rocío 70 ° F
Humedad 68%
Precipitaciones 0.11 pul
Espesor de la nieve No disponible.
UV 4.6 de una escala de 12
Polen 7.20 de una escala de 12
Calidad del aire No disponible.
Flu Activity No disponible.
SPECI KOJC 291955Z 21010KT 10SM SCT015 26/19 A2984 RMK AO2 T02610194

More Conditions Fewer Conditions

10-Day Weather Forecast

Almanac

Astronomía

Aug. 29, 2014 Salida Puesta
Hora real 6:45 AM CDT 7:54 PM CDT
Crepúsculo civil 6:18 AM CDT 8:21 PM CDT
Crepúsculo náutico 5:45 AM CDT 8:54 PM CDT
Crepúsculo astronómico 5:11 AM CDT 9:28 PM CDT
Luna 10:33 AM CDT 9:54 PM CDT
Horas de luz 14h 03m
Horas de luz
13h 08m
Tomorrow will be 2m 25s shorter.
Creciente, 16% of the Moon is Illuminated
Hoy
Creciente
Sep 2
Cuarto creciente
Sep 8
Luna llena
Sep 15
Cuarto menguante
Sep 24
Nueva

Extremos de hoy

Máximos del estado Bajos del estado

Community

WunderPhotos

Upload Photos

1,748,329 ¡fotos cargadas!

WunderBlogs® & News

By Dr. Jeff Masters
Director of Meteorology, Weather Underground
By Kari Strenfel
Meteorologist, Weather Underground
By Christopher C. Burt
Weather Historian, Weather Underground
August 29, 2014
August 29, 2014
August 29, 2014

Nearby

Grosos de nieve

Estación Profundido Altura
No tenemos constancia de nieve nueva.

Actividad de terremotos

Ciudad Distance Mag. Tiempo y dato
No hay informes recientes de la actividad sísmica.
Magnitud mínima muestra es 2,5.

Temperaturas de aguas costeras

Lugar Temperatura
Sin partes meteorológicos de las estaciones

Estaciones meteorológicas cercanas